createdAt,value
2018-07-17T05:05:31.559Z,95131.34
2018-07-17T05:10:34.882Z,95130.81
2018-07-17T05:15:38.967Z,95127.22
2018-07-17T05:20:42.397Z,95135.63
2018-07-17T05:25:46.107Z,95136.98
2018-07-17T05:30:49.446Z,95138.64
2018-07-17T05:35:52.793Z,95134.97
2018-07-17T05:40:56.127Z,95142.19
2018-07-17T05:45:59.449Z,95139.77
2018-07-17T05:51:02.778Z,95137.61
2018-07-17T05:56:06.107Z,95146.55
2018-07-17T06:01:09.437Z,95146.42
2018-07-17T06:06:13.534Z,95150.56
2018-07-17T06:11:16.863Z,95146.95
2018-07-17T06:16:21.874Z,95150.14
2018-07-17T06:21:25.199Z,95158.95
2018-07-17T06:26:28.526Z,95154.92
2018-07-17T06:31:31.863Z,95160.70
2018-07-17T06:36:35.963Z,95169.63
2018-07-17T06:41:39.582Z,95161.00
2018-07-17T06:46:42.917Z,95167.78
2018-07-17T06:51:46.246Z,95170.42
2018-07-17T06:56:50.347Z,95160.58
2018-07-17T07:01:53.673Z,95164.36
2018-07-17T07:06:57.009Z,95180.34
2018-07-17T07:12:01.175Z,95174.42
2018-07-17T07:17:05.227Z,95180.03
2018-07-17T07:22:08.565Z,95175.56
2018-07-17T07:27:11.890Z,95176.17
2018-07-17T07:32:15.981Z,95181.05
2018-07-17T07:37:19.315Z,95182.33
2018-07-17T07:42:23.418Z,95183.11
2018-07-17T07:47:26.753Z,95184.06
2018-07-17T07:52:30.084Z,95188.95
2018-07-17T07:57:34.180Z,95193.53
2018-07-17T08:02:37.512Z,95191.06
2018-07-17T08:07:40.842Z,95194.25
2018-07-17T08:12:44.936Z,95193.77
2018-07-17T08:17:48.273Z,95200.81
2018-07-17T08:22:52.379Z,95201.86
2018-07-17T08:27:55.715Z,95213.23
2018-07-17T08:32:59.810Z,95200.30
2018-07-17T08:38:03.134Z,95190.42
2018-07-17T08:43:06.462Z,95202.87
2018-07-17T08:48:09.794Z,95208.97
2018-07-17T08:53:13.887Z,95213.06
2018-07-17T08:58:17.211Z,95204.40
2018-07-17T09:03:20.563Z,95212.41
2018-07-17T09:08:23.895Z,95207.28
2018-07-17T09:13:27.240Z,95223.70
2018-07-17T09:18:30.580Z,95205.39
2018-07-17T09:23:33.905Z,95207.03
2018-07-17T09:28:38.002Z,95211.78
2018-07-17T09:33:41.403Z,95220.47
2018-07-17T09:38:44.691Z,95205.55
2018-07-17T09:43:48.020Z,95216.52
2018-07-17T09:48:51.354Z,95209.57
2018-07-17T09:53:54.698Z,95211.86
2018-07-17T09:58:58.033Z,95210.91
2018-07-17T10:04:01.372Z,95217.28
2018-07-17T10:09:04.791Z,95212.25
2018-07-17T10:14:08.138Z,95213.09
2018-07-17T10:19:11.473Z,95212.22
2018-07-17T10:24:14.802Z,95214.11
2018-07-17T10:29:18.158Z,95202.14
2018-07-17T10:34:21.512Z,95201.56
2018-07-17T10:39:24.871Z,95200.22
2018-07-17T10:44:28.207Z,95201.94
2018-07-17T10:49:31.794Z,95198.64
2018-07-17T10:54:35.245Z,95192.17
2018-07-17T10:59:38.584Z,95182.81
2018-07-17T11:04:41.963Z,95193.89
2018-07-17T11:09:45.315Z,95173.58
2018-07-17T11:14:48.758Z,95167.73
2018-07-17T11:19:52.112Z,95158.52
2018-07-17T11:24:55.683Z,95150.64
2018-07-17T11:29:59.910Z,95149.56
2018-07-17T11:35:03.675Z,95145.87
2018-07-17T11:40:07.026Z,95150.90
2018-07-17T11:45:10.357Z,95142.11
2018-07-17T11:50:13.704Z,95138.44
2018-07-17T11:55:17.918Z,95132.56
2018-07-17T12:00:21.273Z,95133.53
2018-07-17T12:05:24.788Z,95128.19
2018-07-17T12:10:28.160Z,95127.80
2018-07-17T12:15:31.515Z,95129.52
2018-07-17T12:20:35.106Z,95155.55
2018-07-17T12:25:38.341Z,95147.45
2018-07-17T12:30:41.676Z,95147.58
2018-07-17T12:35:45.017Z,95168.05
2018-07-17T12:40:48.370Z,95150.71
2018-07-17T12:45:51.707Z,95164.74
2018-07-17T12:50:55.052Z,95171.66
2018-07-17T12:55:58.387Z,95167.84
2018-07-17T13:01:01.719Z,95156.33
2018-07-17T13:06:05.058Z,95158.42
2018-07-17T13:11:09.154Z,95158.29
2018-07-17T13:16:12.495Z,95148.07
2018-07-17T13:21:16.585Z,95136.18
2018-07-17T13:26:19.918Z,95129.47
2018-07-17T13:31:23.254Z,95134.20
2018-07-17T13:36:27.358Z,95151.23
2018-07-17T13:41:30.695Z,95148.86
2018-07-17T13:46:34.018Z,95149.87
2018-07-17T13:51:37.350Z,95154.08
2018-07-17T13:56:40.675Z,95166.09
2018-07-17T14:01:44.004Z,95158.38
2018-07-17T14:06:47.491Z,95162.76
2018-07-17T14:11:50.789Z,95167.34
2018-07-17T14:16:54.134Z,95183.64
2018-07-17T14:21:57.464Z,95218.79
2018-07-17T14:27:00.793Z,95203.89
2018-07-17T14:32:04.132Z,95212.38
2018-07-17T14:37:08.227Z,95213.81
2018-07-17T14:42:11.555Z,95220.67
2018-07-17T14:47:15.650Z,95236.10
2018-07-17T14:52:18.988Z,95289.15
2018-07-17T14:57:22.332Z,95297.95
2018-07-17T15:02:25.666Z,95308.67
2018-07-17T15:07:28.999Z,95302.64
2018-07-17T15:12:32.332Z,95258.11
2018-07-17T15:17:35.678Z,95205.23
2018-07-17T15:22:39.767Z,95202.20
2018-07-17T15:27:43.128Z,95193.73
2018-07-17T15:32:47.231Z,95180.66
2018-07-17T15:37:50.675Z,95178.44
2018-07-17T15:42:54.342Z,95175.84
2018-07-17T15:47:57.695Z,95176.53
2018-07-17T15:53:01.906Z,95172.61
2018-07-17T15:58:05.348Z,95177.44
2018-07-17T16:03:09.476Z,95168.63
2018-07-17T16:08:12.932Z,95172.90
2018-07-17T16:13:16.771Z,95173.34
2018-07-17T16:18:20.123Z,95159.62
2018-07-17T16:23:23.455Z,95156.34
2018-07-17T16:28:26.802Z,95153.93
2018-07-17T16:33:30.128Z,95153.37
2018-07-17T16:38:33.562Z,95155.63
2018-07-17T16:43:36.902Z,95148.77
2018-07-17T16:48:40.991Z,95146.80
2018-07-17T16:53:44.317Z,95146.97
2018-07-17T16:58:47.647Z,95146.63
2018-07-17T17:03:50.979Z,95162.16
2018-07-17T17:08:54.395Z,95157.42
2018-07-17T17:13:57.670Z,95152.70
2018-07-17T17:19:01.003Z,95154.66
2018-07-17T17:24:04.433Z,95225.66
2018-07-17T17:29:07.683Z,95294.30
2018-07-17T17:34:11.059Z,95346.08
2018-07-17T17:39:14.399Z,95307.70
2018-07-17T17:44:17.727Z,95296.16
2018-07-17T17:49:21.642Z,95296.12
2018-07-17T17:54:24.968Z,95292.81
2018-07-17T17:59:28.298Z,95262.98
2018-07-17T18:04:31.656Z,95252.77
2018-07-17T18:09:35.095Z,95238.05
2018-07-17T18:14:38.708Z,95243.98
2018-07-17T18:19:42.074Z,95261.20
2018-07-17T18:24:46.575Z,95263.13
2018-07-17T18:29:49.914Z,95266.70
2018-07-17T18:34:53.491Z,95279.06
2018-07-17T18:39:57.115Z,95262.89
2018-07-17T18:45:00.556Z,95268.41
2018-07-17T18:50:12.586Z,95280.86
2018-07-17T18:55:07.399Z,95273.52
2018-07-17T19:00:11.494Z,95278.33
2018-07-17T19:05:14.851Z,95272.73
2018-07-17T19:10:19.283Z,95276.09
2018-07-17T19:15:23.384Z,95290.36
2018-07-17T19:20:27.580Z,95286.45
2018-07-17T19:25:30.915Z,95288.53
2018-07-17T19:30:35.025Z,95296.03
2018-07-17T19:35:38.370Z,95295.58
2018-07-17T19:40:41.773Z,95298.50
2018-07-17T19:45:45.838Z,95297.35
2018-07-17T19:50:49.211Z,95303.09
2018-07-17T19:55:52.559Z,95298.29
2018-07-17T20:00:55.882Z,95297.59
2018-07-17T20:05:59.211Z,95296.72
2018-07-17T20:11:02.656Z,95296.06
2018-07-17T20:16:05.993Z,95304.77
2018-07-17T20:21:09.443Z,95293.59
2018-07-17T20:26:12.796Z,95290.98
2018-07-17T20:31:16.242Z,95287.88
2018-07-17T20:36:19.843Z,95287.58
2018-07-17T20:41:23.170Z,95297.06
2018-07-17T20:46:26.494Z,95296.87
2018-07-17T20:51:29.831Z,95298.39
2018-07-17T20:56:33.926Z,95290.22
2018-07-17T21:01:37.630Z,95288.22
2018-07-17T21:06:40.955Z,95284.63
2018-07-17T21:11:44.296Z,95294.17
2018-07-17T21:16:47.635Z,95291.31
2018-07-17T21:21:51.091Z,95295.61
2018-07-17T21:26:54.450Z,95296.55
2018-07-17T21:31:58.545Z,95310.59
2018-07-17T21:37:01.903Z,95310.03
2018-07-17T21:42:06.006Z,95322.36
2018-07-17T21:47:09.369Z,95340.48
2018-07-17T21:52:12.815Z,95332.80
2018-07-17T21:57:16.152Z,95343.37
2018-07-17T22:02:19.579Z,95348.27
2018-07-17T22:07:23.802Z,95352.80
2018-07-17T22:12:27.898Z,95350.92
2018-07-17T22:17:31.336Z,95345.53
2018-07-17T22:22:34.788Z,95345.61
2018-07-17T22:27:38.236Z,95342.22
